sensor_id;sensor_type;location;lat;lon;timestamp;P1;durP1;ratioP1;P2;durP2;ratioP2
10489;SDS011;35569;48.402;10.670;2022-08-20T00:00:36;12.47;;;11.67;;
10489;SDS011;35569;48.402;10.670;2022-08-20T00:01:10;13.50;;;12.50;;
10489;SDS011;35569;48.402;10.670;2022-08-20T00:01:42;14.17;;;13.07;;
10489;SDS011;35569;48.402;10.670;2022-08-20T00:02:14;14.03;;;13.13;;
10489;SDS011;35569;48.402;10.670;2022-08-20T00:02:50;13.87;;;12.87;;
10489;SDS011;35569;48.402;10.670;2022-08-20T00:03:25;13.17;;;12.27;;
10489;SDS011;35569;48.402;10.670;2022-08-20T00:04:00;13.63;;;12.70;;
10489;SDS011;35569;48.402;10.670;2022-08-20T00:04:37;13.10;;;12.30;;
10489;SDS011;35569;48.402;10.670;2022-08-20T00:05:10;14.03;;;13.13;;
10489;SDS011;35569;48.402;10.670;2022-08-20T00:05:44;15.07;;;14.03;;
10489;SDS011;35569;48.402;10.670;2022-08-20T00:06:27;13.63;;;12.63;;
10489;SDS011;35569;48.402;10.670;2022-08-20T00:07:02;13.47;;;12.63;;
10489;SDS011;35569;48.402;10.670;2022-08-20T00:07:34;14.37;;;13.17;;
10489;SDS011;35569;48.402;10.670;2022-08-20T00:08:09;12.50;;;11.77;;
10489;SDS011;35569;48.402;10.670;2022-08-20T00:08:42;13.00;;;12.10;;
10489;SDS011;35569;48.402;10.670;2022-08-20T00:09:15;12.97;;;12.07;;
10489;SDS011;35569;48.402;10.670;2022-08-20T00:09:50;13.80;;;12.93;;
10489;SDS011;35569;48.402;10.670;2022-08-20T00:10:22;13.77;;;12.87;;
10489;SDS011;35569;48.402;10.670;2022-08-20T00:10:56;13.17;;;12.27;;
10489;SDS011;35569;48.402;10.670;2022-08-20T00:11:31;13.70;;;12.70;;
10489;SDS011;35569;48.402;10.670;2022-08-20T00:12:04;14.00;;;13.03;;
10489;SDS011;35569;48.402;10.670;2022-08-20T00:12:37;13.80;;;12.80;;
10489;SDS011;35569;48.402;10.670;2022-08-20T00:13:18;13.60;;;12.60;;
10489;SDS011;35569;48.402;10.670;2022-08-20T00:13:54;13.83;;;12.87;;
10489;SDS011;35569;48.402;10.670;2022-08-20T00:14:28;13.30;;;12.40;;
10489;SDS011;35569;48.402;10.670;2022-08-20T00:15:05;14.07;;;13.07;;
10489;SDS011;35569;48.402;10.670;2022-08-20T00:15:38;13.47;;;12.47;;
10489;SDS011;35569;48.402;10.670;2022-08-20T00:16:10;13.97;;;12.80;;
10489;SDS011;35569;48.402;10.670;2022-08-20T00:16:46;13.83;;;12.90;;
10489;SDS011;35569;48.402;10.670;2022-08-20T00:17:18;13.57;;;12.57;;
10489;SDS011;35569;48.402;10.670;2022-08-20T00:17:50;13.37;;;12.37;;
10489;SDS011;35569;48.402;10.670;2022-08-20T00:18:26;13.40;;;12.50;;
10489;SDS011;35569;48.402;10.670;2022-08-20T00:18:59;13.07;;;12.17;;
10489;SDS011;35569;48.402;10.670;2022-08-20T00:19:32;13.73;;;12.83;;
10489;SDS011;35569;48.402;10.670;2022-08-20T00:20:08;14.70;;;13.50;;
10489;SDS011;35569;48.402;10.670;2022-08-20T00:20:43;13.33;;;12.43;;
10489;SDS011;35569;48.402;10.670;2022-08-20T00:21:17;13.20;;;12.37;;
10489;SDS011;35569;48.402;10.670;2022-08-20T00:21:56;13.97;;;13.07;;
10489;SDS011;35569;48.402;10.670;2022-08-20T00:22:31;13.23;;;12.40;;
10489;SDS011;35569;48.402;10.670;2022-08-20T00:23:06;15.03;;;13.83;;
10489;SDS011;35569;48.402;10.670;2022-08-20T00:23:42;13.23;;;12.43;;
10489;SDS011;35569;48.402;10.670;2022-08-20T00:24:16;14.73;;;13.63;;
10489;SDS011;35569;48.402;10.670;2022-08-20T00:24:51;14.23;;;13.23;;
10489;SDS011;35569;48.402;10.670;2022-08-20T00:25:24;14.47;;;13.37;;
10489;SDS011;35569;48.402;10.670;2022-08-20T00:25:57;14.80;;;13.60;;
10489;SDS011;35569;48.402;10.670;2022-08-20T00:26:32;13.93;;;12.97;;
10489;SDS011;35569;48.402;10.670;2022-08-20T00:27:04;13.93;;;12.93;;
10489;SDS011;35569;48.402;10.670;2022-08-20T00:27:37;12.90;;;12.10;;
10489;SDS011;35569;48.402;10.670;2022-08-20T00:28:12;14.40;;;13.23;;
10489;SDS011;35569;48.402;10.670;2022-08-20T00:28:45;13.13;;;12.13;;
10489;SDS011;35569;48.402;10.670;2022-08-20T00:29:18;13.23;;;12.33;;
10489;SDS011;35569;48.402;10.670;2022-08-20T00:29:53;13.23;;;12.23;;
10489;SDS011;35569;48.402;10.670;2022-08-20T00:30:25;13.60;;;12.70;;
10489;SDS011;35569;48.402;10.670;2022-08-20T00:30:58;13.30;;;12.30;;
10489;SDS011;35569;48.402;10.670;2022-08-20T00:31:33;14.67;;;13.50;;
10489;SDS011;35569;48.402;10.670;2022-08-20T00:32:05;13.80;;;12.80;;
10489;SDS011;35569;48.402;10.670;2022-08-20T00:32:41;13.10;;;12.30;;
10489;SDS011;35569;48.402;10.670;2022-08-20T00:33:18;13.90;;;12.90;;
10489;SDS011;35569;48.402;10.670;2022-08-20T00:33:51;13.37;;;12.47;;
10489;SDS011;35569;48.402;10.670;2022-08-20T00:34:27;13.30;;;12.40;;
10489;SDS011;35569;48.402;10.670;2022-08-20T00:34:59;14.37;;;13.37;;
10489;SDS011;35569;48.402;10.670;2022-08-20T00:35:32;14.30;;;13.30;;
10489;SDS011;35569;48.402;10.670;2022-08-20T00:36:08;13.07;;;12.20;;
10489;SDS011;35569;48.402;10.670;2022-08-20T00:36:42;13.27;;;12.33;;
10489;SDS011;35569;48.402;10.670;2022-08-20T00:37:17;12.40;;;11.63;;
10489;SDS011;35569;48.402;10.670;2022-08-20T00:37:52;13.73;;;12.73;;
10489;SDS011;35569;48.402;10.670;2022-08-20T00:38:31;13.03;;;12.20;;
10489;SDS011;35569;48.402;10.670;2022-08-20T00:39:07;12.90;;;12.00;;
10489;SDS011;35569;48.402;10.670;2022-08-20T00:39:39;12.47;;;11.70;;
10489;SDS011;35569;48.402;10.670;2022-08-20T00:40:13;12.60;;;11.70;;
10489;SDS011;35569;48.402;10.670;2022-08-20T00:40:55;12.23;;;11.50;;
10489;SDS011;35569;48.402;10.670;2022-08-20T00:41:28;13.07;;;12.17;;
10489;SDS011;35569;48.402;10.670;2022-08-20T00:42:04;12.40;;;11.50;;
10489;SDS011;35569;48.402;10.670;2022-08-20T00:42:40;12.00;;;11.20;;
10489;SDS011;35569;48.402;10.670;2022-08-20T00:43:29;13.40;;;12.60;;
10489;SDS011;35569;48.402;10.670;2022-08-20T00:44:09;12.60;;;11.80;;
10489;SDS011;35569;48.402;10.670;2022-08-20T00:44:44;12.90;;;11.80;;
10489;SDS011;35569;48.402;10.670;2022-08-20T00:45:20;12.77;;;11.87;;
10489;SDS011;35569;48.402;10.670;2022-08-20T00:45:52;12.93;;;12.00;;
10489;SDS011;35569;48.402;10.670;2022-08-20T00:46:27;12.40;;;11.60;;
10489;SDS011;35569;48.402;10.670;2022-08-20T00:47:03;12.27;;;11.37;;
10489;SDS011;35569;48.402;10.670;2022-08-20T00:47:35;12.50;;;11.70;;
10489;SDS011;35569;48.402;10.670;2022-08-20T00:48:21;12.87;;;11.87;;
10489;SDS011;35569;48.402;10.670;2022-08-20T00:48:56;13.20;;;12.20;;
10489;SDS011;35569;48.402;10.670;2022-08-20T00:49:30;13.97;;;12.90;;
10489;SDS011;35569;48.402;10.670;2022-08-20T00:50:06;13.43;;;12.43;;
10489;SDS011;35569;48.402;10.670;2022-08-20T00:50:39;12.20;;;11.40;;
10489;SDS011;35569;48.402;10.670;2022-08-20T00:51:13;12.23;;;11.37;;
10489;SDS011;35569;48.402;10.670;2022-08-20T00:51:51;12.53;;;11.70;;
10489;SDS011;35569;48.402;10.670;2022-08-20T00:52:28;12.50;;;11.70;;
10489;SDS011;35569;48.402;10.670;2022-08-20T00:53:04;13.00;;;12.03;;
10489;SDS011;35569;48.402;10.670;2022-08-20T00:53:38;12.67;;;11.60;;
10489;SDS011;35569;48.402;10.670;2022-08-20T00:54:14;12.60;;;11.80;;
10489;SDS011;35569;48.402;10.670;2022-08-20T00:54:49;12.57;;;11.80;;
10489;SDS011;35569;48.402;10.670;2022-08-20T00:55:27;12.57;;;11.67;;
10489;SDS011;35569;48.402;10.670;2022-08-20T00:56:02;12.30;;;11.60;;
10489;SDS011;35569;48.402;10.670;2022-08-20T00:56:35;13.03;;;12.00;;
10489;SDS011;35569;48.402;10.670;2022-08-20T00:57:16;11.97;;;11.17;;
10489;SDS011;35569;48.402;10.670;2022-08-20T00:57:51;11.93;;;11.13;;
10489;SDS011;35569;48.402;10.670;2022-08-20T00:58:32;12.27;;;11.57;;
10489;SDS011;35569;48.402;10.670;2022-08-20T00:59:08;12.40;;;11.50;;
10489;SDS011;35569;48.402;10.670;2022-08-20T00:59:42;12.07;;;11.27;;
10489;SDS011;35569;48.402;10.670;2022-08-20T01:00:19;11.63;;;10.77;;
10489;SDS011;35569;48.402;10.670;2022-08-20T01:00:53;12.37;;;11.57;;
10489;SDS011;35569;48.402;10.670;2022-08-20T01:01:26;11.23;;;10.53;;
10489;SDS011;35569;48.402;10.670;2022-08-20T01:02:25;11.60;;;10.90;;
10489;SDS011;35569;48.402;10.670;2022-08-20T01:03:00;11.43;;;10.63;;
10489;SDS011;35569;48.402;10.670;2022-08-20T01:03:38;12.37;;;11.63;;
10489;SDS011;35569;48.402;10.670;2022-08-20T01:04:12;12.10;;;11.30;;
10489;SDS011;35569;48.402;10.670;2022-08-20T01:04:45;12.37;;;11.40;;
10489;SDS011;35569;48.402;10.670;2022-08-20T01:05:24;12.20;;;11.30;;
10489;SDS011;35569;48.402;10.670;2022-08-20T01:06:00;12.23;;;11.50;;
10489;SDS011;35569;48.402;10.670;2022-08-20T01:06:32;12.97;;;12.07;;
10489;SDS011;35569;48.402;10.670;2022-08-20T01:07:05;12.13;;;11.17;;
10489;SDS011;35569;48.402;10.670;2022-08-20T01:07:41;11.70;;;10.90;;
10489;SDS011;35569;48.402;10.670;2022-08-20T01:08:20;12.43;;;11.60;;
10489;SDS011;35569;48.402;10.670;2022-08-20T01:08:54;11.80;;;11.00;;
10489;SDS011;35569;48.402;10.670;2022-08-20T01:09:27;11.40;;;10.70;;
10489;SDS011;35569;48.402;10.670;2022-08-20T01:10:24;11.43;;;10.73;;
10489;SDS011;35569;48.402;10.670;2022-08-20T01:10:58;11.37;;;10.67;;
10489;SDS011;35569;48.402;10.670;2022-08-20T01:11:43;11.00;;;10.40;;
10489;SDS011;35569;48.402;10.670;2022-08-20T01:12:16;12.20;;;11.50;;
10489;SDS011;35569;48.402;10.670;2022-08-20T01:12:49;12.17;;;11.27;;
10489;SDS011;35569;48.402;10.670;2022-08-20T01:13:29;12.20;;;11.30;;
10489;SDS011;35569;48.402;10.670;2022-08-20T01:14:05;12.40;;;11.60;;
10489;SDS011;35569;48.402;10.670;2022-08-20T01:14:52;11.03;;;10.23;;
10489;SDS011;35569;48.402;10.670;2022-08-20T01:15:26;11.33;;;10.60;;
10489;SDS011;35569;48.402;10.670;2022-08-20T01:16:03;11.83;;;11.00;;
10489;SDS011;35569;48.402;10.670;2022-08-20T01:16:42;12.27;;;11.37;;
10489;SDS011;35569;48.402;10.670;2022-08-20T01:17:19;12.13;;;11.23;;
10489;SDS011;35569;48.402;10.670;2022-08-20T01:17:54;11.13;;;10.43;;
10489;SDS011;35569;48.402;10.670;2022-08-20T01:18:29;11.13;;;10.40;;
10489;SDS011;35569;48.402;10.670;2022-08-20T01:19:04;11.87;;;11.13;;
10489;SDS011;35569;48.402;10.670;2022-08-20T01:20:02;11.33;;;10.63;;
10489;SDS011;35569;48.402;10.670;2022-08-20T01:20:40;10.47;;;9.90;;
10489;SDS011;35569;48.402;10.670;2022-08-20T01:21:15;11.13;;;10.43;;
10489;SDS011;35569;48.402;10.670;2022-08-20T01:21:52;11.53;;;10.53;;
10489;SDS011;35569;48.402;10.670;2022-08-20T01:22:27;10.67;;;9.97;;
10489;SDS011;35569;48.402;10.670;2022-08-20T01:23:24;10.80;;;10.20;;
10489;SDS011;35569;48.402;10.670;2022-08-20T01:24:16;11.10;;;10.40;;
10489;SDS011;35569;48.402;10.670;2022-08-20T01:24:54;10.57;;;9.87;;
10489;SDS011;35569;48.402;10.670;2022-08-20T01:25:29;12.47;;;11.17;;
10489;SDS011;35569;48.402;10.670;2022-08-20T01:26:16;10.63;;;10.00;;
10489;SDS011;35569;48.402;10.670;2022-08-20T01:26:50;10.67;;;9.97;;
10489;SDS011;35569;48.402;10.670;2022-08-20T01:27:26;11.17;;;10.47;;
10489;SDS011;35569;48.402;10.670;2022-08-20T01:28:01;10.13;;;9.60;;
10489;SDS011;35569;48.402;10.670;2022-08-20T01:28:36;10.30;;;9.60;;
10489;SDS011;35569;48.402;10.670;2022-08-20T01:29:12;9.77;;;9.20;;
10489;SDS011;35569;48.402;10.670;2022-08-20T01:29:49;10.43;;;9.83;;
10489;SDS011;35569;48.402;10.670;2022-08-20T01:30:23;10.23;;;9.63;;
10489;SDS011;35569;48.402;10.670;2022-08-20T01:30:57;9.87;;;9.37;;
10489;SDS011;35569;48.402;10.670;2022-08-20T01:31:33;9.73;;;9.23;;
10489;SDS011;35569;48.402;10.670;2022-08-20T01:32:06;10.83;;;10.13;;
10489;SDS011;35569;48.402;10.670;2022-08-20T01:32:39;10.90;;;10.20;;
10489;SDS011;35569;48.402;10.670;2022-08-20T01:33:11;11.10;;;10.40;;
10489;SDS011;35569;48.402;10.670;2022-08-20T01:33:46;10.10;;;9.50;;
10489;SDS011;35569;48.402;10.670;2022-08-20T01:34:20;10.10;;;9.50;;
10489;SDS011;35569;48.402;10.670;2022-08-20T01:34:55;10.70;;;10.10;;
10489;SDS011;35569;48.402;10.670;2022-08-20T01:35:27;10.37;;;9.77;;
10489;SDS011;35569;48.402;10.670;2022-08-20T01:36:00;10.23;;;9.60;;
10489;SDS011;35569;48.402;10.670;2022-08-20T01:36:37;10.60;;;10.00;;
10489;SDS011;35569;48.402;10.670;2022-08-20T01:37:16;10.73;;;9.93;;
10489;SDS011;35569;48.402;10.670;2022-08-20T01:37:49;10.37;;;9.77;;
10489;SDS011;35569;48.402;10.670;2022-08-20T01:38:21;10.90;;;10.20;;
10489;SDS011;35569;48.402;10.670;2022-08-20T01:38:56;10.07;;;9.33;;
10489;SDS011;35569;48.402;10.670;2022-08-20T01:39:30;11.57;;;10.67;;
10489;SDS011;35569;48.402;10.670;2022-08-20T01:40:05;10.40;;;9.87;;
10489;SDS011;35569;48.402;10.670;2022-08-20T01:42:02;10.47;;;9.90;;
10489;SDS011;35569;48.402;10.670;2022-08-20T01:42:39;11.10;;;10.40;;
10489;SDS011;35569;48.402;10.670;2022-08-20T01:43:30;10.73;;;10.13;;
10489;SDS011;35569;48.402;10.670;2022-08-20T01:44:07;10.43;;;9.73;;
10489;SDS011;35569;48.402;10.670;2022-08-20T01:44:49;11.00;;;10.30;;
10489;SDS011;35569;48.402;10.670;2022-08-20T01:45:21;11.67;;;10.77;;
10489;SDS011;35569;48.402;10.670;2022-08-20T01:45:58;11.20;;;10.40;;
10489;SDS011;35569;48.402;10.670;2022-08-20T01:46:35;10.60;;;9.90;;
10489;SDS011;35569;48.402;10.670;2022-08-20T01:47:15;11.33;;;10.43;;
10489;SDS011;35569;48.402;10.670;2022-08-20T01:47:52;10.60;;;9.80;;
10489;SDS011;35569;48.402;10.670;2022-08-20T01:48:25;10.37;;;9.67;;
10489;SDS011;35569;48.402;10.670;2022-08-20T01:48:59;11.27;;;10.57;;
10489;SDS011;35569;48.402;10.670;2022-08-20T01:49:49;11.00;;;10.27;;
10489;SDS011;35569;48.402;10.670;2022-08-20T01:50:23;10.20;;;9.60;;
10489;SDS011;35569;48.402;10.670;2022-08-20T01:50:59;10.30;;;9.63;;
10489;SDS011;35569;48.402;10.670;2022-08-20T01:51:38;11.20;;;10.50;;
10489;SDS011;35569;48.402;10.670;2022-08-20T01:52:12;11.17;;;10.57;;
10489;SDS011;35569;48.402;10.670;2022-08-20T01:52:50;11.30;;;10.50;;
10489;SDS011;35569;48.402;10.670;2022-08-20T01:53:27;10.97;;;10.27;;
10489;SDS011;35569;48.402;10.670;2022-08-20T01:54:04;10.83;;;10.13;;
10489;SDS011;35569;48.402;10.670;2022-08-20T01:54:36;10.90;;;10.20;;
10489;SDS011;35569;48.402;10.670;2022-08-20T01:55:11;11.07;;;10.37;;
10489;SDS011;35569;48.402;10.670;2022-08-20T01:55:44;10.50;;;9.90;;
10489;SDS011;35569;48.402;10.670;2022-08-20T01:56:20;10.50;;;9.87;;
10489;SDS011;35569;48.402;10.670;2022-08-20T01:56:59;11.30;;;10.60;;
10489;SDS011;35569;48.402;10.670;2022-08-20T01:57:37;10.00;;;9.40;;
10489;SDS011;35569;48.402;10.670;2022-08-20T01:58:10;10.63;;;9.93;;
10489;SDS011;35569;48.402;10.670;2022-08-20T01:58:47;10.10;;;9.40;;
10489;SDS011;35569;48.402;10.670;2022-08-20T01:59:29;11.00;;;10.40;;
10489;SDS011;35569;48.402;10.670;2022-08-20T02:00:03;10.23;;;9.53;;
10489;SDS011;35569;48.402;10.670;2022-08-20T02:00:48;10.90;;;10.20;;
10489;SDS011;35569;48.402;10.670;2022-08-20T02:01:21;10.40;;;9.67;;
10489;SDS011;35569;48.402;10.670;2022-08-20T02:01:59;10.10;;;9.40;;
10489;SDS011;35569;48.402;10.670;2022-08-20T02:02:33;10.43;;;9.83;;
10489;SDS011;35569;48.402;10.670;2022-08-20T02:03:05;10.53;;;9.87;;
10489;SDS011;35569;48.402;10.670;2022-08-20T02:03:40;10.07;;;9.47;;
10489;SDS011;35569;48.402;10.670;2022-08-20T02:04:15;11.53;;;10.73;;
10489;SDS011;35569;48.402;10.670;2022-08-20T02:04:48;10.17;;;9.60;;
10489;SDS011;35569;48.402;10.670;2022-08-20T02:05:23;10.13;;;9.63;;
10489;SDS011;35569;48.402;10.670;2022-08-20T02:06:01;10.40;;;9.77;;
10489;SDS011;35569;48.402;10.670;2022-08-20T02:06:34;10.17;;;9.53;;
10489;SDS011;35569;48.402;10.670;2022-08-20T02:07:26;10.80;;;10.20;;
10489;SDS011;35569;48.402;10.670;2022-08-20T02:08:00;10.33;;;9.73;;
10489;SDS011;35569;48.402;10.670;2022-08-20T02:08:36;9.70;;;9.20;;
10489;SDS011;35569;48.402;10.670;2022-08-20T02:09:09;10.07;;;9.57;;
10489;SDS011;35569;48.402;10.670;2022-08-20T02:09:47;9.93;;;9.33;;
10489;SDS011;35569;48.402;10.670;2022-08-20T02:10:23;9.87;;;9.27;;
10489;SDS011;35569;48.402;10.670;2022-08-20T02:10:55;10.70;;;10.00;;
10489;SDS011;35569;48.402;10.670;2022-08-20T02:11:31;9.37;;;8.77;;
10489;SDS011;35569;48.402;10.670;2022-08-20T02:12:07;10.20;;;9.50;;
10489;SDS011;35569;48.402;10.670;2022-08-20T02:12:40;10.43;;;9.70;;
10489;SDS011;35569;48.402;10.670;2022-08-20T02:13:13;9.73;;;9.23;;
10489;SDS011;35569;48.402;10.670;2022-08-20T02:13:48;10.23;;;9.63;;
10489;SDS011;35569;48.402;10.670;2022-08-20T02:14:23;9.70;;;9.17;;
10489;SDS011;35569;48.402;10.670;2022-08-20T02:14:55;10.07;;;9.47;;
10489;SDS011;35569;48.402;10.670;2022-08-20T02:15:31;9.90;;;9.33;;
10489;SDS011;35569;48.402;10.670;2022-08-20T02:16:08;9.87;;;9.20;;
10489;SDS011;35569;48.402;10.670;2022-08-20T02:16:43;9.77;;;9.17;;
10489;SDS011;35569;48.402;10.670;2022-08-20T02:17:26;10.27;;;9.73;;
10489;SDS011;35569;48.402;10.670;2022-08-20T02:17:58;10.60;;;9.90;;
10489;SDS011;35569;48.402;10.670;2022-08-20T02:18:33;10.50;;;9.90;;
10489;SDS011;35569;48.402;10.670;2022-08-20T02:19:07;9.90;;;9.30;;
10489;SDS011;35569;48.402;10.670;2022-08-20T02:19:44;10.70;;;10.07;;
10489;SDS011;35569;48.402;10.670;2022-08-20T02:20:19;9.90;;;9.30;;
10489;SDS011;35569;48.402;10.670;2022-08-20T02:20:55;9.50;;;8.90;;
10489;SDS011;35569;48.402;10.670;2022-08-20T02:21:30;9.63;;;9.10;;
10489;SDS011;35569;48.402;10.670;2022-08-20T02:22:06;9.63;;;9.03;;
10489;SDS011;35569;48.402;10.670;2022-08-20T02:22:56;9.73;;;9.03;;
10489;SDS011;35569;48.402;10.670;2022-08-20T02:23:32;9.00;;;8.50;;
10489;SDS011;35569;48.402;10.670;2022-08-20T02:24:05;11.03;;;10.23;;
10489;SDS011;35569;48.402;10.670;2022-08-20T02:24:39;10.30;;;9.60;;
10489;SDS011;35569;48.402;10.670;2022-08-20T02:25:14;9.67;;;9.20;;
10489;SDS011;35569;48.402;10.670;2022-08-20T02:25:47;9.77;;;9.17;;
10489;SDS011;35569;48.402;10.670;2022-08-20T02:26:20;10.20;;;9.60;;
10489;SDS011;35569;48.402;10.670;2022-08-20T02:26:55;9.70;;;9.10;;
10489;SDS011;35569;48.402;10.670;2022-08-20T02:27:30;10.47;;;9.53;;
10489;SDS011;35569;48.402;10.670;2022-08-20T02:28:07;9.73;;;9.10;;
10489;SDS011;35569;48.402;10.670;2022-08-20T02:28:40;10.13;;;9.33;;
10489;SDS011;35569;48.402;10.670;2022-08-20T02:29:34;10.10;;;9.40;;
10489;SDS011;35569;48.402;10.670;2022-08-20T02:30:26;9.33;;;8.83;;
10489;SDS011;35569;48.402;10.670;2022-08-20T02:31:22;9.30;;;8.80;;
10489;SDS011;35569;48.402;10.670;2022-08-20T02:32:16;10.37;;;9.80;;
10489;SDS011;35569;48.402;10.670;2022-08-20T02:33:25;10.30;;;9.70;;
10489;SDS011;35569;48.402;10.670;2022-08-20T02:34:17;9.80;;;9.17;;
10489;SDS011;35569;48.402;10.670;2022-08-20T02:35:14;10.00;;;9.30;;
10489;SDS011;35569;48.402;10.670;2022-08-20T02:36:06;9.87;;;9.37;;
10489;SDS011;35569;48.402;10.670;2022-08-20T02:37:04;10.43;;;9.73;;
10489;SDS011;35569;48.402;10.670;2022-08-20T02:37:57;10.57;;;9.80;;
10489;SDS011;35569;48.402;10.670;2022-08-20T02:38:53;9.90;;;9.30;;
10489;SDS011;35569;48.402;10.670;2022-08-20T02:39:46;10.40;;;9.80;;
10489;SDS011;35569;48.402;10.670;2022-08-20T02:40:41;9.53;;;9.03;;
10489;SDS011;35569;48.402;10.670;2022-08-20T02:41:24;9.87;;;9.27;;
10489;SDS011;35569;48.402;10.670;2022-08-20T02:42:02;10.80;;;10.00;;
10489;SDS011;35569;48.402;10.670;2022-08-20T02:42:35;10.43;;;9.73;;
10489;SDS011;35569;48.402;10.670;2022-08-20T02:43:14;9.43;;;8.93;;
10489;SDS011;35569;48.402;10.670;2022-08-20T02:43:51;10.60;;;9.90;;
10489;SDS011;35569;48.402;10.670;2022-08-20T02:44:24;9.80;;;9.20;;
10489;SDS011;35569;48.402;10.670;2022-08-20T02:44:56;10.30;;;9.70;;
10489;SDS011;35569;48.402;10.670;2022-08-20T02:45:32;9.27;;;8.80;;
10489;SDS011;35569;48.402;10.670;2022-08-20T02:46:07;10.90;;;10.10;;
10489;SDS011;35569;48.402;10.670;2022-08-20T02:46:40;10.23;;;9.63;;
10489;SDS011;35569;48.402;10.670;2022-08-20T02:47:15;10.20;;;9.60;;
10489;SDS011;35569;48.402;10.670;2022-08-20T02:47:48;9.70;;;9.10;;
10489;SDS011;35569;48.402;10.670;2022-08-20T02:48:23;9.73;;;9.13;;
10489;SDS011;35569;48.402;10.670;2022-08-20T02:48:58;10.20;;;9.60;;
10489;SDS011;35569;48.402;10.670;2022-08-20T02:49:31;10.40;;;9.80;;
10489;SDS011;35569;48.402;10.670;2022-08-20T02:50:04;9.47;;;8.97;;
10489;SDS011;35569;48.402;10.670;2022-08-20T02:50:41;9.80;;;9.20;;
10489;SDS011;35569;48.402;10.670;2022-08-20T02:51:14;10.03;;;9.43;;
10489;SDS011;35569;48.402;10.670;2022-08-20T02:51:58;9.10;;;8.70;;
10489;SDS011;35569;48.402;10.670;2022-08-20T02:52:33;9.30;;;8.63;;
10489;SDS011;35569;48.402;10.670;2022-08-20T02:53:05;8.97;;;8.47;;
10489;SDS011;35569;48.402;10.670;2022-08-20T02:53:38;9.87;;;9.33;;
10489;SDS011;35569;48.402;10.670;2022-08-20T02:54:14;10.30;;;9.60;;
10489;SDS011;35569;48.402;10.670;2022-08-20T02:54:47;9.60;;;8.90;;
10489;SDS011;35569;48.402;10.670;2022-08-20T02:55:21;9.10;;;8.63;;
10489;SDS011;35569;48.402;10.670;2022-08-20T02:55:59;9.37;;;8.83;;
10489;SDS011;35569;48.402;10.670;2022-08-20T02:56:31;9.33;;;8.83;;
10489;SDS011;35569;48.402;10.670;2022-08-20T02:57:13;8.97;;;8.57;;
10489;SDS011;35569;48.402;10.670;2022-08-20T02:57:46;10.47;;;9.77;;
10489;SDS011;35569;48.402;10.670;2022-08-20T02:58:21;9.67;;;8.97;;
10489;SDS011;35569;48.402;10.670;2022-08-20T02:58:56;9.97;;;9.37;;
10489;SDS011;35569;48.402;10.670;2022-08-20T02:59:28;9.60;;;8.97;;
10489;SDS011;35569;48.402;10.670;2022-08-20T03:00:01;9.30;;;8.90;;
10489;SDS011;35569;48.402;10.670;2022-08-20T03:00:37;9.50;;;8.90;;
10489;SDS011;35569;48.402;10.670;2022-08-20T03:01:10;9.53;;;9.00;;
10489;SDS011;35569;48.402;10.670;2022-08-20T03:01:45;9.27;;;8.80;;
10489;SDS011;35569;48.402;10.670;2022-08-20T03:02:31;9.10;;;8.60;;
10489;SDS011;35569;48.402;10.670;2022-08-20T03:03:05;9.83;;;9.23;;
10489;SDS011;35569;48.402;10.670;2022-08-20T03:03:39;9.53;;;9.03;;
10489;SDS011;35569;48.402;10.670;2022-08-20T03:04:14;9.43;;;8.93;;
10489;SDS011;35569;48.402;10.670;2022-08-20T03:04:47;9.43;;;9.03;;
10489;SDS011;35569;48.402;10.670;2022-08-20T03:05:19;9.50;;;9.00;;
10489;SDS011;35569;48.402;10.670;2022-08-20T03:05:55;9.93;;;9.43;;
10489;SDS011;35569;48.402;10.670;2022-08-20T03:06:29;9.07;;;8.57;;
10489;SDS011;35569;48.402;10.670;2022-08-20T03:07:02;9.00;;;8.60;;
10489;SDS011;35569;48.402;10.670;2022-08-20T03:07:41;8.80;;;8.30;;
10489;SDS011;35569;48.402;10.670;2022-08-20T03:08:14;9.40;;;8.90;;
10489;SDS011;35569;48.402;10.670;2022-08-20T03:08:47;9.70;;;9.20;;
10489;SDS011;35569;48.402;10.670;2022-08-20T03:09:22;8.83;;;8.33;;
10489;SDS011;35569;48.402;10.670;2022-08-20T03:09:55;9.50;;;9.00;;
10489;SDS011;35569;48.402;10.670;2022-08-20T03:10:28;9.00;;;8.60;;
10489;SDS011;35569;48.402;10.670;2022-08-20T03:11:05;9.77;;;9.20;;
10489;SDS011;35569;48.402;10.670;2022-08-20T03:11:37;9.90;;;9.30;;
10489;SDS011;35569;48.402;10.670;2022-08-20T03:12:15;10.07;;;9.40;;
10489;SDS011;35569;48.402;10.670;2022-08-20T03:12:47;9.13;;;8.53;;
10489;SDS011;35569;48.402;10.670;2022-08-20T03:13:20;9.83;;;9.23;;
10489;SDS011;35569;48.402;10.670;2022-08-20T03:13:53;8.63;;;8.23;;
10489;SDS011;35569;48.402;10.670;2022-08-20T03:14:31;9.23;;;8.63;;
10489;SDS011;35569;48.402;10.670;2022-08-20T03:15:08;10.47;;;9.70;;
10489;SDS011;35569;48.402;10.670;2022-08-20T03:15:49;9.73;;;9.23;;
10489;SDS011;35569;48.402;10.670;2022-08-20T03:16:29;9.10;;;8.60;;
10489;SDS011;35569;48.402;10.670;2022-08-20T03:17:02;9.60;;;9.10;;
10489;SDS011;35569;48.402;10.670;2022-08-20T03:17:35;9.20;;;8.70;;
10489;SDS011;35569;48.402;10.670;2022-08-20T03:18:10;9.17;;;8.67;;
10489;SDS011;35569;48.402;10.670;2022-08-20T03:18:43;9.17;;;8.67;;
10489;SDS011;35569;48.402;10.670;2022-08-20T03:19:16;9.77;;;9.10;;
10489;SDS011;35569;48.402;10.670;2022-08-20T03:19:53;8.77;;;8.27;;
10489;SDS011;35569;48.402;10.670;2022-08-20T03:20:26;9.10;;;8.60;;
10489;SDS011;35569;48.402;10.670;2022-08-20T03:21:03;9.03;;;8.53;;
10489;SDS011;35569;48.402;10.670;2022-08-20T03:21:40;9.07;;;8.57;;
10489;SDS011;35569;48.402;10.670;2022-08-20T03:22:12;9.10;;;8.53;;
10489;SDS011;35569;48.402;10.670;2022-08-20T03:22:55;9.60;;;9.10;;
10489;SDS011;35569;48.402;10.670;2022-08-20T03:23:30;9.70;;;9.20;;
10489;SDS011;35569;48.402;10.670;2022-08-20T03:24:05;9.37;;;8.80;;
10489;SDS011;35569;48.402;10.670;2022-08-20T03:24:37;9.50;;;9.00;;
10489;SDS011;35569;48.402;10.670;2022-08-20T03:25:14;9.23;;;8.73;;
10489;SDS011;35569;48.402;10.670;2022-08-20T03:25:49;8.37;;;7.93;;
10489;SDS011;35569;48.402;10.670;2022-08-20T03:26:22;8.90;;;8.50;;
10489;SDS011;35569;48.402;10.670;2022-08-20T03:26:57;8.73;;;8.30;;
10489;SDS011;35569;48.402;10.670;2022-08-20T03:27:33;10.10;;;9.40;;
10489;SDS011;35569;48.402;10.670;2022-08-20T03:28:07;10.30;;;9.60;;
10489;SDS011;35569;48.402;10.670;2022-08-20T03:28:45;9.30;;;8.80;;
10489;SDS011;35569;48.402;10.670;2022-08-20T03:29:19;9.23;;;8.73;;
10489;SDS011;35569;48.402;10.670;2022-08-20T03:29:52;9.30;;;8.70;;
10489;SDS011;35569;48.402;10.670;2022-08-20T03:30:28;10.30;;;9.70;;
10489;SDS011;35569;48.402;10.670;2022-08-20T03:31:02;8.70;;;8.30;;
10489;SDS011;35569;48.402;10.670;2022-08-20T03:31:37;9.60;;;9.00;;
10489;SDS011;35569;48.402;10.670;2022-08-20T03:32:11;8.93;;;8.33;;
10489;SDS011;35569;48.402;10.670;2022-08-20T03:32:44;9.33;;;8.93;;
10489;SDS011;35569;48.402;10.670;2022-08-20T03:33:21;8.43;;;8.03;;
10489;SDS011;35569;48.402;10.670;2022-08-20T03:33:57;9.27;;;8.67;;
10489;SDS011;35569;48.402;10.670;2022-08-20T03:34:35;8.30;;;7.90;;